sensor_id;sensor_type;location;lat;lon;timestamp;temperature;humidity
29431;DHT22;16404;49.902;10.074;2023-12-20T00:01:10;9.30;70.20
29431;DHT22;16404;49.902;10.074;2023-12-20T00:03:54;9.20;70.30
29431;DHT22;16404;49.902;10.074;2023-12-20T00:06:39;9.20;70.40
29431;DHT22;16404;49.902;10.074;2023-12-20T00:09:23;9.20;70.50
29431;DHT22;16404;49.902;10.074;2023-12-20T00:12:09;9.20;70.70
29431;DHT22;16404;49.902;10.074;2023-12-20T00:14:54;9.20;70.90
29431;DHT22;16404;49.902;10.074;2023-12-20T00:17:38;9.10;70.90
29431;DHT22;16404;49.902;10.074;2023-12-20T00:20:23;9.10;70.90
29431;DHT22;16404;49.902;10.074;2023-12-20T00:23:08;9.10;71.10
29431;DHT22;16404;49.902;10.074;2023-12-20T00:25:52;9.20;71.00
29431;DHT22;16404;49.902;10.074;2023-12-20T00:28:37;9.10;71.00
29431;DHT22;16404;49.902;10.074;2023-12-20T00:31:21;9.10;71.20
29431;DHT22;16404;49.902;10.074;2023-12-20T00:34:06;9.10;71.40
29431;DHT22;16404;49.902;10.074;2023-12-20T00:36:50;9.10;71.40
29431;DHT22;16404;49.902;10.074;2023-12-20T00:39:35;9.10;71.40
29431;DHT22;16404;49.902;10.074;2023-12-20T00:42:20;9.10;71.50
29431;DHT22;16404;49.902;10.074;2023-12-20T00:45:05;9.10;71.60
29431;DHT22;16404;49.902;10.074;2023-12-20T00:47:49;9.00;71.60
29431;DHT22;16404;49.902;10.074;2023-12-20T00:50:34;9.00;71.70
29431;DHT22;16404;49.902;10.074;2023-12-20T00:53:19;8.90;72.00
29431;DHT22;16404;49.902;10.074;2023-12-20T00:56:03;8.90;72.00
29431;DHT22;16404;49.902;10.074;2023-12-20T00:58:48;8.90;72.00
29431;DHT22;16404;49.902;10.074;2023-12-20T01:01:32;8.90;72.10
29431;DHT22;16404;49.902;10.074;2023-12-20T01:04:17;8.90;72.10
29431;DHT22;16404;49.902;10.074;2023-12-20T01:07:01;8.90;71.90
29431;DHT22;16404;49.902;10.074;2023-12-20T01:09:46;8.80;71.90
29431;DHT22;16404;49.902;10.074;2023-12-20T01:12:30;8.80;72.20
29431;DHT22;16404;49.902;10.074;2023-12-20T01:15:15;8.80;72.20
29431;DHT22;16404;49.902;10.074;2023-12-20T01:18:00;8.80;72.20
29431;DHT22;16404;49.902;10.074;2023-12-20T01:20:44;8.80;72.10
29431;DHT22;16404;49.902;10.074;2023-12-20T01:23:29;8.80;72.20
29431;DHT22;16404;49.902;10.074;2023-12-20T01:26:14;8.80;72.10
29431;DHT22;16404;49.902;10.074;2023-12-20T01:28:59;8.80;72.10
29431;DHT22;16404;49.902;10.074;2023-12-20T01:31:43;8.80;72.20
29431;DHT22;16404;49.902;10.074;2023-12-20T01:34:28;8.80;72.10
29431;DHT22;16404;49.902;10.074;2023-12-20T01:37:12;8.80;72.00
29431;DHT22;16404;49.902;10.074;2023-12-20T01:39:58;8.80;72.00
29431;DHT22;16404;49.902;10.074;2023-12-20T01:42:42;8.80;72.00
29431;DHT22;16404;49.902;10.074;2023-12-20T01:45:27;8.80;71.80
29431;DHT22;16404;49.902;10.074;2023-12-20T01:48:12;8.80;71.80
29431;DHT22;16404;49.902;10.074;2023-12-20T01:50:56;8.80;71.70
29431;DHT22;16404;49.902;10.074;2023-12-20T01:53:42;8.80;71.70
29431;DHT22;16404;49.902;10.074;2023-12-20T01:56:28;8.80;71.70
29431;DHT22;16404;49.902;10.074;2023-12-20T01:59:13;8.80;71.60
29431;DHT22;16404;49.902;10.074;2023-12-20T02:01:58;8.80;71.60
29431;DHT22;16404;49.902;10.074;2023-12-20T02:04:42;8.70;71.70
29431;DHT22;16404;49.902;10.074;2023-12-20T02:07:27;8.70;71.70
29431;DHT22;16404;49.902;10.074;2023-12-20T02:10:12;8.70;71.80
29431;DHT22;16404;49.902;10.074;2023-12-20T02:12:57;8.80;71.50
29431;DHT22;16404;49.902;10.074;2023-12-20T02:15:41;8.70;71.40
29431;DHT22;16404;49.902;10.074;2023-12-20T02:18:28;8.60;71.40
29431;DHT22;16404;49.902;10.074;2023-12-20T02:21:12;8.70;71.50
29431;DHT22;16404;49.902;10.074;2023-12-20T02:23:57;8.70;71.50
29431;DHT22;16404;49.902;10.074;2023-12-20T02:26:41;8.70;71.70
29431;DHT22;16404;49.902;10.074;2023-12-20T02:29:26;8.70;71.60
29431;DHT22;16404;49.902;10.074;2023-12-20T02:32:11;8.60;71.60
29431;DHT22;16404;49.902;10.074;2023-12-20T02:34:55;8.70;71.40
29431;DHT22;16404;49.902;10.074;2023-12-20T02:37:40;8.70;71.30
29431;DHT22;16404;49.902;10.074;2023-12-20T02:40:25;8.70;72.10
29431;DHT22;16404;49.902;10.074;2023-12-20T02:43:10;8.70;71.50
29431;DHT22;16404;49.902;10.074;2023-12-20T02:45:54;8.80;71.40
29431;DHT22;16404;49.902;10.074;2023-12-20T02:48:39;8.70;71.20
29431;DHT22;16404;49.902;10.074;2023-12-20T02:51:23;8.70;71.20
29431;DHT22;16404;49.902;10.074;2023-12-20T02:54:08;8.70;71.20
29431;DHT22;16404;49.902;10.074;2023-12-20T02:56:52;8.70;71.30
29431;DHT22;16404;49.902;10.074;2023-12-20T02:59:37;8.70;71.30
29431;DHT22;16404;49.902;10.074;2023-12-20T03:02:22;8.70;71.30
29431;DHT22;16404;49.902;10.074;2023-12-20T03:05:06;8.60;71.40
29431;DHT22;16404;49.902;10.074;2023-12-20T03:07:51;8.60;71.50
29431;DHT22;16404;49.902;10.074;2023-12-20T03:10:36;8.60;71.40
29431;DHT22;16404;49.902;10.074;2023-12-20T03:13:20;8.70;71.50
29431;DHT22;16404;49.902;10.074;2023-12-20T03:16:12;8.70;71.30
29431;DHT22;16404;49.902;10.074;2023-12-20T03:18:57;8.70;71.30
29431;DHT22;16404;49.902;10.074;2023-12-20T03:21:41;8.70;71.30
29431;DHT22;16404;49.902;10.074;2023-12-20T03:24:25;8.60;71.30
29431;DHT22;16404;49.902;10.074;2023-12-20T03:27:10;8.60;71.20
29431;DHT22;16404;49.902;10.074;2023-12-20T03:29:54;8.60;71.30
29431;DHT22;16404;49.902;10.074;2023-12-20T03:32:39;8.60;71.30
29431;DHT22;16404;49.902;10.074;2023-12-20T03:35:24;8.60;71.40
29431;DHT22;16404;49.902;10.074;2023-12-20T03:38:08;8.50;71.40
29431;DHT22;16404;49.902;10.074;2023-12-20T03:40:53;8.60;71.40
29431;DHT22;16404;49.902;10.074;2023-12-20T03:43:37;8.60;71.30
29431;DHT22;16404;49.902;10.074;2023-12-20T03:46:22;8.60;71.30
29431;DHT22;16404;49.902;10.074;2023-12-20T03:49:06;8.50;71.20
29431;DHT22;16404;49.902;10.074;2023-12-20T03:51:51;8.50;71.30
29431;DHT22;16404;49.902;10.074;2023-12-20T03:54:36;8.50;71.40
29431;DHT22;16404;49.902;10.074;2023-12-20T03:57:20;8.50;71.30
29431;DHT22;16404;49.902;10.074;2023-12-20T04:00:07;8.50;71.20
29431;DHT22;16404;49.902;10.074;2023-12-20T04:02:56;8.50;71.30
29431;DHT22;16404;49.902;10.074;2023-12-20T04:05:41;8.60;71.10
29431;DHT22;16404;49.902;10.074;2023-12-20T04:08:25;8.60;71.10
29431;DHT22;16404;49.902;10.074;2023-12-20T04:11:10;8.50;71.00
29431;DHT22;16404;49.902;10.074;2023-12-20T04:13:54;8.50;71.20
29431;DHT22;16404;49.902;10.074;2023-12-20T04:16:39;8.40;71.30
29431;DHT22;16404;49.902;10.074;2023-12-20T04:19:24;8.40;71.40
29431;DHT22;16404;49.902;10.074;2023-12-20T04:22:09;8.40;71.50
29431;DHT22;16404;49.902;10.074;2023-12-20T04:24:53;8.50;71.60
29431;DHT22;16404;49.902;10.074;2023-12-20T04:27:38;8.50;71.40
29431;DHT22;16404;49.902;10.074;2023-12-20T04:30:22;8.40;71.30
29431;DHT22;16404;49.902;10.074;2023-12-20T04:33:07;8.40;71.60
29431;DHT22;16404;49.902;10.074;2023-12-20T04:35:51;8.30;71.70
29431;DHT22;16404;49.902;10.074;2023-12-20T04:38:36;8.40;72.40
29431;DHT22;16404;49.902;10.074;2023-12-20T04:41:21;8.40;71.70
29431;DHT22;16404;49.902;10.074;2023-12-20T04:44:05;8.40;71.70
29431;DHT22;16404;49.902;10.074;2023-12-20T04:46:50;8.40;71.60
29431;DHT22;16404;49.902;10.074;2023-12-20T04:49:35;8.40;71.60
29431;DHT22;16404;49.902;10.074;2023-12-20T04:52:19;8.50;71.70
29431;DHT22;16404;49.902;10.074;2023-12-20T04:55:04;8.40;71.60
29431;DHT22;16404;49.902;10.074;2023-12-20T04:57:49;8.40;71.90
29431;DHT22;16404;49.902;10.074;2023-12-20T05:00:34;8.40;72.00
29431;DHT22;16404;49.902;10.074;2023-12-20T05:03:18;8.50;72.00
29431;DHT22;16404;49.902;10.074;2023-12-20T05:06:03;8.40;71.90
29431;DHT22;16404;49.902;10.074;2023-12-20T05:08:48;8.40;72.10
29431;DHT22;16404;49.902;10.074;2023-12-20T05:11:32;8.50;72.20
29431;DHT22;16404;49.902;10.074;2023-12-20T05:14:17;8.50;72.10
29431;DHT22;16404;49.902;10.074;2023-12-20T05:17:02;8.50;72.00
29431;DHT22;16404;49.902;10.074;2023-12-20T05:19:47;8.60;71.90
29431;DHT22;16404;49.902;10.074;2023-12-20T05:22:32;8.60;71.90
29431;DHT22;16404;49.902;10.074;2023-12-20T05:25:17;8.60;71.80
29431;DHT22;16404;49.902;10.074;2023-12-20T05:28:02;8.70;71.80
29431;DHT22;16404;49.902;10.074;2023-12-20T05:30:46;8.70;71.80
29431;DHT22;16404;49.902;10.074;2023-12-20T05:33:31;8.60;71.80
29431;DHT22;16404;49.902;10.074;2023-12-20T05:36:15;8.70;72.00
29431;DHT22;16404;49.902;10.074;2023-12-20T05:39:00;8.70;71.90
29431;DHT22;16404;49.902;10.074;2023-12-20T05:41:45;8.70;71.90
29431;DHT22;16404;49.902;10.074;2023-12-20T05:44:29;8.70;72.00
29431;DHT22;16404;49.902;10.074;2023-12-20T05:47:14;8.70;72.10
29431;DHT22;16404;49.902;10.074;2023-12-20T05:49:59;8.70;72.10
29431;DHT22;16404;49.902;10.074;2023-12-20T05:52:43;8.70;72.20
29431;DHT22;16404;49.902;10.074;2023-12-20T05:55:28;8.70;72.00
29431;DHT22;16404;49.902;10.074;2023-12-20T05:58:12;8.80;72.00
29431;DHT22;16404;49.902;10.074;2023-12-20T06:00:57;8.70;71.90
29431;DHT22;16404;49.902;10.074;2023-12-20T06:03:42;8.70;71.90
29431;DHT22;16404;49.902;10.074;2023-12-20T06:06:26;8.60;72.00
29431;DHT22;16404;49.902;10.074;2023-12-20T06:09:11;8.60;72.20
29431;DHT22;16404;49.902;10.074;2023-12-20T06:11:55;8.60;72.20
29431;DHT22;16404;49.902;10.074;2023-12-20T06:14:40;8.60;72.80
29431;DHT22;16404;49.902;10.074;2023-12-20T06:17:24;8.60;72.00
29431;DHT22;16404;49.902;10.074;2023-12-20T06:20:09;8.60;72.10
29431;DHT22;16404;49.902;10.074;2023-12-20T06:22:54;8.60;72.20
29431;DHT22;16404;49.902;10.074;2023-12-20T06:25:38;8.70;72.00
29431;DHT22;16404;49.902;10.074;2023-12-20T06:28:23;8.60;71.80
29431;DHT22;16404;49.902;10.074;2023-12-20T06:31:07;8.70;71.90
29431;DHT22;16404;49.902;10.074;2023-12-20T06:33:52;8.70;71.80
29431;DHT22;16404;49.902;10.074;2023-12-20T06:36:41;8.80;71.80
29431;DHT22;16404;49.902;10.074;2023-12-20T06:39:26;8.80;71.70
29431;DHT22;16404;49.902;10.074;2023-12-20T06:42:10;8.90;71.60
29431;DHT22;16404;49.902;10.074;2023-12-20T06:44:55;8.90;71.30
29431;DHT22;16404;49.902;10.074;2023-12-20T06:47:39;9.10;71.10
29431;DHT22;16404;49.902;10.074;2023-12-20T06:50:24;9.10;70.90
29431;DHT22;16404;49.902;10.074;2023-12-20T06:53:09;9.10;70.90
29431;DHT22;16404;49.902;10.074;2023-12-20T06:55:54;9.10;71.00
29431;DHT22;16404;49.902;10.074;2023-12-20T06:58:40;9.10;71.00
29431;DHT22;16404;49.902;10.074;2023-12-20T07:01:25;9.10;71.20
29431;DHT22;16404;49.902;10.074;2023-12-20T07:04:09;9.00;71.30
29431;DHT22;16404;49.902;10.074;2023-12-20T07:06:54;9.00;71.40
29431;DHT22;16404;49.902;10.074;2023-12-20T07:09:41;9.10;71.40
29431;DHT22;16404;49.902;10.074;2023-12-20T07:12:28;9.10;71.30
29431;DHT22;16404;49.902;10.074;2023-12-20T07:15:12;9.10;71.10
29431;DHT22;16404;49.902;10.074;2023-12-20T07:17:57;9.10;71.10
29431;DHT22;16404;49.902;10.074;2023-12-20T07:20:44;9.10;71.10
29431;DHT22;16404;49.902;10.074;2023-12-20T07:23:28;9.00;71.10
29431;DHT22;16404;49.902;10.074;2023-12-20T07:26:13;9.00;71.10
29431;DHT22;16404;49.902;10.074;2023-12-20T07:28:57;8.90;71.00
29431;DHT22;16404;49.902;10.074;2023-12-20T07:31:42;8.90;70.90
29431;DHT22;16404;49.902;10.074;2023-12-20T07:34:27;8.90;70.90
29431;DHT22;16404;49.902;10.074;2023-12-20T07:37:11;8.70;70.60
29431;DHT22;16404;49.902;10.074;2023-12-20T07:39:57;8.60;70.80
29431;DHT22;16404;49.902;10.074;2023-12-20T07:42:41;8.50;70.90
29431;DHT22;16404;49.902;10.074;2023-12-20T07:45:26;8.50;71.00
29431;DHT22;16404;49.902;10.074;2023-12-20T07:48:11;8.40;70.80
29431;DHT22;16404;49.902;10.074;2023-12-20T07:50:55;8.50;70.90
29431;DHT22;16404;49.902;10.074;2023-12-20T07:53:40;8.50;70.60
29431;DHT22;16404;49.902;10.074;2023-12-20T07:56:24;8.40;70.40
29431;DHT22;16404;49.902;10.074;2023-12-20T07:59:09;8.50;70.40
29431;DHT22;16404;49.902;10.074;2023-12-20T08:01:54;8.70;69.70
29431;DHT22;16404;49.902;10.074;2023-12-20T08:04:38;9.10;68.70
29431;DHT22;16404;49.902;10.074;2023-12-20T08:07:23;9.40;67.60
29431;DHT22;16404;49.902;10.074;2023-12-20T08:10:08;9.80;66.50
29431;DHT22;16404;49.902;10.074;2023-12-20T08:12:53;10.20;65.40
29431;DHT22;16404;49.902;10.074;2023-12-20T08:15:37;10.50;64.40
29431;DHT22;16404;49.902;10.074;2023-12-20T08:18:22;10.50;63.90
29431;DHT22;16404;49.902;10.074;2023-12-20T08:21:07;10.40;64.00
29431;DHT22;16404;49.902;10.074;2023-12-20T08:23:55;10.10;64.70
29431;DHT22;16404;49.902;10.074;2023-12-20T08:26:40;10.00;65.00
29431;DHT22;16404;49.902;10.074;2023-12-20T08:29:25;9.80;65.30
29431;DHT22;16404;49.902;10.074;2023-12-20T08:32:09;9.70;66.30
29431;DHT22;16404;49.902;10.074;2023-12-20T08:34:54;9.70;65.80
29431;DHT22;16404;49.902;10.074;2023-12-20T08:37:39;9.80;65.70
29431;DHT22;16404;49.902;10.074;2023-12-20T08:40:23;9.90;65.60
29431;DHT22;16404;49.902;10.074;2023-12-20T08:43:08;9.90;65.30
29431;DHT22;16404;49.902;10.074;2023-12-20T08:45:52;10.00;65.30
29431;DHT22;16404;49.902;10.074;2023-12-20T08:48:37;10.00;65.40
29431;DHT22;16404;49.902;10.074;2023-12-20T08:51:22;10.00;65.40
29431;DHT22;16404;49.902;10.074;2023-12-20T08:54:07;9.90;65.70
29431;DHT22;16404;49.902;10.074;2023-12-20T08:56:52;9.70;66.10
29431;DHT22;16404;49.902;10.074;2023-12-20T08:59:37;9.60;66.50
29431;DHT22;16404;49.902;10.074;2023-12-20T09:02:22;9.50;66.70
29431;DHT22;16404;49.902;10.074;2023-12-20T09:05:07;9.50;66.80
29431;DHT22;16404;49.902;10.074;2023-12-20T09:07:51;9.40;66.70
29431;DHT22;16404;49.902;10.074;2023-12-20T09:10:37;9.30;67.00
29431;DHT22;16404;49.902;10.074;2023-12-20T09:13:21;9.20;67.10
29431;DHT22;16404;49.902;10.074;2023-12-20T09:16:11;9.10;67.50
29431;DHT22;16404;49.902;10.074;2023-12-20T09:18:57;9.00;67.80
29431;DHT22;16404;49.902;10.074;2023-12-20T09:21:41;8.90;68.00
29431;DHT22;16404;49.902;10.074;2023-12-20T09:24:26;8.90;68.30
29431;DHT22;16404;49.902;10.074;2023-12-20T09:27:11;8.90;68.40
29431;DHT22;16404;49.902;10.074;2023-12-20T09:29:55;8.90;68.40
29431;DHT22;16404;49.902;10.074;2023-12-20T09:32:40;8.90;68.60
29431;DHT22;16404;49.902;10.074;2023-12-20T09:35:24;8.90;68.80
29431;DHT22;16404;49.902;10.074;2023-12-20T09:38:10;8.90;68.90
29431;DHT22;16404;49.902;10.074;2023-12-20T09:40:55;8.90;68.90
29431;DHT22;16404;49.902;10.074;2023-12-20T09:43:41;9.00;68.80
29431;DHT22;16404;49.902;10.074;2023-12-20T09:46:26;9.10;68.70
29431;DHT22;16404;49.902;10.074;2023-12-20T09:49:14;9.10;68.80
29431;DHT22;16404;49.902;10.074;2023-12-20T09:52:00;9.10;68.80
29431;DHT22;16404;49.902;10.074;2023-12-20T09:54:45;9.20;68.80
29431;DHT22;16404;49.902;10.074;2023-12-20T09:57:32;9.20;68.60
29431;DHT22;16404;49.902;10.074;2023-12-20T10:00:17;9.20;68.40
29431;DHT22;16404;49.902;10.074;2023-12-20T10:03:01;9.20;68.50
29431;DHT22;16404;49.902;10.074;2023-12-20T10:05:47;9.20;68.60
29431;DHT22;16404;49.902;10.074;2023-12-20T10:08:33;9.20;68.70
29431;DHT22;16404;49.902;10.074;2023-12-20T10:11:18;9.20;68.50
29431;DHT22;16404;49.902;10.074;2023-12-20T10:14:04;9.20;68.40
29431;DHT22;16404;49.902;10.074;2023-12-20T10:16:49;9.20;68.40
29431;DHT22;16404;49.902;10.074;2023-12-20T10:19:33;9.30;68.60
29431;DHT22;16404;49.902;10.074;2023-12-20T10:22:18;9.30;68.80
29431;DHT22;16404;49.902;10.074;2023-12-20T10:25:03;9.30;68.60
29431;DHT22;16404;49.902;10.074;2023-12-20T10:27:47;9.30;68.40
29431;DHT22;16404;49.902;10.074;2023-12-20T10:30:32;9.30;68.40
29431;DHT22;16404;49.902;10.074;2023-12-20T10:33:27;9.20;68.30
29431;DHT22;16404;49.902;10.074;2023-12-20T10:36:12;9.30;68.40
29431;DHT22;16404;49.902;10.074;2023-12-20T10:38:58;9.30;68.10
29431;DHT22;16404;49.902;10.074;2023-12-20T10:41:44;9.30;68.10
29431;DHT22;16404;49.902;10.074;2023-12-20T10:44:30;9.20;68.20
29431;DHT22;16404;49.902;10.074;2023-12-20T10:47:15;9.20;68.40
29431;DHT22;16404;49.902;10.074;2023-12-20T10:50:01;9.30;68.50
29431;DHT22;16404;49.902;10.074;2023-12-20T10:52:45;9.30;68.60
29431;DHT22;16404;49.902;10.074;2023-12-20T10:55:30;9.30;68.50
29431;DHT22;16404;49.902;10.074;2023-12-20T10:58:16;9.40;68.30
29431;DHT22;16404;49.902;10.074;2023-12-20T11:01:01;9.30;68.20
29431;DHT22;16404;49.902;10.074;2023-12-20T11:03:50;9.30;68.30
29431;DHT22;16404;49.902;10.074;2023-12-20T11:06:58;9.40;68.30
29431;DHT22;16404;49.902;10.074;2023-12-20T11:09:54;9.40;68.10
29431;DHT22;16404;49.902;10.074;2023-12-20T11:13:08;9.40;68.20
29431;DHT22;16404;49.902;10.074;2023-12-20T11:15:55;9.40;68.30
29431;DHT22;16404;49.902;10.074;2023-12-20T11:18:40;9.50;68.20
29431;DHT22;16404;49.902;10.074;2023-12-20T11:21:29;9.50;68.20
29431;DHT22;16404;49.902;10.074;2023-12-20T11:24:16;9.50;68.20
29431;DHT22;16404;49.902;10.074;2023-12-20T11:27:00;9.50;68.30
29431;DHT22;16404;49.902;10.074;2023-12-20T11:29:53;9.60;68.30
29431;DHT22;16404;49.902;10.074;2023-12-20T11:32:40;9.60;68.10
29431;DHT22;16404;49.902;10.074;2023-12-20T11:35:24;9.60;68.10
29431;DHT22;16404;49.902;10.074;2023-12-20T11:38:10;9.70;68.00
29431;DHT22;16404;49.902;10.074;2023-12-20T11:40:55;9.70;67.90
29431;DHT22;16404;49.902;10.074;2023-12-20T11:43:40;9.80;67.70
29431;DHT22;16404;49.902;10.074;2023-12-20T11:46:24;9.80;67.70
29431;DHT22;16404;49.902;10.074;2023-12-20T11:49:09;9.70;67.60
29431;DHT22;16404;49.902;10.074;2023-12-20T11:51:53;9.80;67.50
29431;DHT22;16404;49.902;10.074;2023-12-20T11:54:38;9.70;67.20
29431;DHT22;16404;49.902;10.074;2023-12-20T11:57:23;9.70;67.30
29431;DHT22;16404;49.902;10.074;2023-12-20T12:00:08;9.70;67.30
29431;DHT22;16404;49.902;10.074;2023-12-20T12:02:58;9.70;67.30
29431;DHT22;16404;49.902;10.074;2023-12-20T12:05:43;9.70;67.30
29431;DHT22;16404;49.902;10.074;2023-12-20T12:08:30;9.70;67.30
29431;DHT22;16404;49.902;10.074;2023-12-20T12:11:14;9.70;67.20
29431;DHT22;16404;49.902;10.074;2023-12-20T12:13:59;9.70;67.20
29431;DHT22;16404;49.902;10.074;2023-12-20T12:16:44;9.60;67.40
29431;DHT22;16404;49.902;10.074;2023-12-20T12:19:30;9.70;67.40
29431;DHT22;16404;49.902;10.074;2023-12-20T12:22:19;9.70;67.10
29431;DHT22;16404;49.902;10.074;2023-12-20T12:25:11;9.60;67.00
29431;DHT22;16404;49.902;10.074;2023-12-20T12:27:58;9.60;66.80
29431;DHT22;16404;49.902;10.074;2023-12-20T12:30:42;9.60;66.70
29431;DHT22;16404;49.902;10.074;2023-12-20T12:33:27;9.60;66.40
29431;DHT22;16404;49.902;10.074;2023-12-20T12:36:12;9.60;66.30
29431;DHT22;16404;49.902;10.074;2023-12-20T12:39:02;9.60;65.90
29431;DHT22;16404;49.902;10.074;2023-12-20T12:41:48;9.60;66.00
29431;DHT22;16404;49.902;10.074;2023-12-20T12:44:33;9.60;66.00
29431;DHT22;16404;49.902;10.074;2023-12-20T12:47:18;9.60;66.00
29431;DHT22;16404;49.902;10.074;2023-12-20T12:50:02;9.50;65.80
29431;DHT22;16404;49.902;10.074;2023-12-20T12:52:47;9.50;65.60
29431;DHT22;16404;49.902;10.074;2023-12-20T12:55:31;9.60;65.40
29431;DHT22;16404;49.902;10.074;2023-12-20T12:58:16;9.50;65.40
29431;DHT22;16404;49.902;10.074;2023-12-20T13:01:00;9.50;65.70
29431;DHT22;16404;49.902;10.074;2023-12-20T13:03:45;9.50;65.60
29431;DHT22;16404;49.902;10.074;2023-12-20T13:06:30;9.60;65.30
29431;DHT22;16404;49.902;10.074;2023-12-20T13:09:14;9.60;65.20
29431;DHT22;16404;49.902;10.074;2023-12-20T13:11:59;9.60;65.30
29431;DHT22;16404;49.902;10.074;2023-12-20T13:14:46;9.60;65.10
29431;DHT22;16404;49.902;10.074;2023-12-20T13:17:30;9.50;65.10
29431;DHT22;16404;49.902;10.074;2023-12-20T13:20:15;9.50;65.00
29431;DHT22;16404;49.902;10.074;2023-12-20T13:22:59;9.50;64.90
29431;DHT22;16404;49.902;10.074;2023-12-20T13:25:44;9.50;65.00
29431;DHT22;16404;49.902;10.074;2023-12-20T13:28:29;9.50;64.90
29431;DHT22;16404;49.902;10.074;2023-12-20T13:31:14;9.50;64.90
29431;DHT22;16404;49.902;10.074;2023-12-20T13:33:59;9.50;65.00
29431;DHT22;16404;49.902;10.074;2023-12-20T13:36:45;9.50;64.90
29431;DHT22;16404;49.902;10.074;2023-12-20T13:39:34;9.50;64.70
29431;DHT22;16404;49.902;10.074;2023-12-20T13:42:18;9.50;64.60
29431;DHT22;16404;49.902;10.074;2023-12-20T13:45:05;9.40;64.60
29431;DHT22;16404;49.902;10.074;2023-12-20T13:47:50;9.40;64.30
29431;DHT22;16404;49.902;10.074;2023-12-20T13:50:34;9.40;64.50
29431;DHT22;16404;49.902;10.074;2023-12-20T13:53:19;9.40;65.20
29431;DHT22;16404;49.902;10.074;2023-12-20T13:56:04;9.40;64.30
29431;DHT22;16404;49.902;10.074;2023-12-20T13:58:49;9.50;64.30
29431;DHT22;16404;49.902;10.074;2023-12-20T14:01:35;9.50;64.20
29431;DHT22;16404;49.902;10.074;2023-12-20T14:04:20;9.50;64.00
29431;DHT22;16404;49.902;10.074;2023-12-20T14:07:05;9.50;63.90
29431;DHT22;16404;49.902;10.074;2023-12-20T14:09:51;9.40;63.90
29431;DHT22;16404;49.902;10.074;2023-12-20T14:12:36;9.40;63.80
29431;DHT22;16404;49.902;10.074;2023-12-20T14:15:22;9.30;63.90
29431;DHT22;16404;49.902;10.074;2023-12-20T14:18:10;9.40;64.10
29431;DHT22;16404;49.902;10.074;2023-12-20T14:20:54;9.40;64.00
29431;DHT22;16404;49.902;10.074;2023-12-20T14:23:39;9.50;64.00
29431;DHT22;16404;49.902;10.074;2023-12-20T14:26:24;9.50;63.80
29431;DHT22;16404;49.902;10.074;2023-12-20T14:29:08;9.60;63.50
29431;DHT22;16404;49.902;10.074;2023-12-20T14:31:53;9.60;63.30
29431;DHT22;16404;49.902;10.074;2023-12-20T14:34:37;9.60;63.20
29431;DHT22;16404;49.902;10.074;2023-12-20T14:37:22;9.60;63.30
29431;DHT22;16404;49.902;10.074;2023-12-20T14:40:07;9.50;63.30
29431;DHT22;16404;49.902;10.074;2023-12-20T14:42:55;9.50;63.50
29431;DHT22;16404;49.902;10.074;2023-12-20T14:45:41;9.50;63.40
29431;DHT22;16404;49.902;10.074;2023-12-20T14:48:25;9.50;63.10
29431;DHT22;16404;49.902;10.074;2023-12-20T14:51:11;9.50;63.10
29431;DHT22;16404;49.902;10.074;2023-12-20T14:53:57;9.50;63.10
29431;DHT22;16404;49.902;10.074;2023-12-20T14:56:42;9.50;63.00
29431;DHT22;16404;49.902;10.074;2023-12-20T14:59:27;9.50;62.90
29431;DHT22;16404;49.902;10.074;2023-12-20T15:02:11;9.50;63.10
29431;DHT22;16404;49.902;10.074;2023-12-20T15:04:56;9.50;63.10
29431;DHT22;16404;49.902;10.074;2023-12-20T15:07:40;9.50;63.10
29431;DHT22;16404;49.902;10.074;2023-12-20T15:10:25;9.50;63.30
29431;DHT22;16404;49.902;10.074;2023-12-20T15:13:09;9.50;63.40
29431;DHT22;16404;49.902;10.074;2023-12-20T15:15:54;9.50;63.30
29431;DHT22;16404;49.902;10.074;2023-12-20T15:18:39;9.50;63.30
29431;DHT22;16404;49.902;10.074;2023-12-20T15:21:23;9.40;63.20
29431;DHT22;16404;49.902;10.074;2023-12-20T15:24:15;9.40;63.20
29431;DHT22;16404;49.902;10.074;2023-12-20T15:27:01;9.40;64.00
29431;DHT22;16404;49.902;10.074;2023-12-20T15:29:45;9.30;63.30
29431;DHT22;16404;49.902;10.074;2023-12-20T15:32:30;9.30;64.00
29431;DHT22;16404;49.902;10.074;2023-12-20T15:35:15;9.40;64.00
29431;DHT22;16404;49.902;10.074;2023-12-20T15:38:00;9.40;63.20
29431;DHT22;16404;49.902;10.074;2023-12-20T15:40:45;9.30;63.20
29431;DHT22;16404;49.902;10.074;2023-12-20T15:43:29;9.40;63.20
29431;DHT22;16404;49.902;10.074;2023-12-20T15:46:14;9.30;62.90
29431;DHT22;16404;49.902;10.074;2023-12-20T15:48:58;9.30;63.10
29431;DHT22;16404;49.902;10.074;2023-12-20T15:51:43;9.20;64.00
29431;DHT22;16404;49.902;10.074;2023-12-20T15:54:28;9.20;63.70
29431;DHT22;16404;49.902;10.074;2023-12-20T15:57:12;9.20;63.30
29431;DHT22;16404;49.902;10.074;2023-12-20T15:59:59;9.20;63.30
29431;DHT22;16404;49.902;10.074;2023-12-20T16:02:44;9.20;63.30
29431;DHT22;16404;49.902;10.074;2023-12-20T16:05:29;9.30;63.30
29431;DHT22;16404;49.902;10.074;2023-12-20T16:08:13;9.30;63.20
29431;DHT22;16404;49.902;10.074;2023-12-20T16:10:58;9.30;63.30
29431;DHT22;16404;49.902;10.074;2023-12-20T16:13:42;9.30;63.20
29431;DHT22;16404;49.902;10.074;2023-12-20T16:16:27;9.20;63.00
29431;DHT22;16404;49.902;10.074;2023-12-20T16:19:12;9.10;63.30
29431;DHT22;16404;49.902;10.074;2023-12-20T16:21:56;9.00;63.40
29431;DHT22;16404;49.902;10.074;2023-12-20T16:24:41;9.00;63.70
29431;DHT22;16404;49.902;10.074;2023-12-20T16:27:25;8.90;64.50
29431;DHT22;16404;49.902;10.074;2023-12-20T16:30:10;8.90;63.90
29431;DHT22;16404;49.902;10.074;2023-12-20T16:32:54;8.90;63.90
29431;DHT22;16404;49.902;10.074;2023-12-20T16:35:39;8.90;64.00
29431;DHT22;16404;49.902;10.074;2023-12-20T16:38:24;8.90;64.00
29431;DHT22;16404;49.902;10.074;2023-12-20T16:41:08;8.90;64.00
29431;DHT22;16404;49.902;10.074;2023-12-20T16:43:53;9.00;64.10
29431;DHT22;16404;49.902;10.074;2023-12-20T16:46:37;8.90;64.10
29431;DHT22;16404;49.902;10.074;2023-12-20T16:49:22;8.90;64.00
29431;DHT22;16404;49.902;10.074;2023-12-20T16:52:07;8.90;64.10
29431;DHT22;16404;49.902;10.074;2023-12-20T16:54:51;9.00;64.10
29431;DHT22;16404;49.902;10.074;2023-12-20T16:57:36;9.00;64.10
29431;DHT22;16404;49.902;10.074;2023-12-20T17:00:20;9.00;64.10
29431;DHT22;16404;49.902;10.074;2023-12-20T17:03:06;8.90;64.00
29431;DHT22;16404;49.902;10.074;2023-12-20T17:05:52;9.00;64.10
29431;DHT22;16404;49.902;10.074;2023-12-20T17:08:36;9.00;64.10
29431;DHT22;16404;49.902;10.074;2023-12-20T17:11:21;9.00;64.10
29431;DHT22;16404;49.902;10.074;2023-12-20T17:14:05;9.00;64.10
29431;DHT22;16404;49.902;10.074;2023-12-20T17:16:50;9.00;64.30
29431;DHT22;16404;49.902;10.074;2023-12-20T17:19:35;9.00;64.30
29431;DHT22;16404;49.902;10.074;2023-12-20T17:22:20;9.00;64.40